createdAt,value
2018-03-02T00:01:32.022Z,65.28
2018-03-02T00:04:00.041Z,65.49
2018-03-02T00:06:27.698Z,64.10
2018-03-02T00:08:55.336Z,62.68
2018-03-02T00:11:22.964Z,63.34
2018-03-02T00:13:50.537Z,61.35
2018-03-02T00:16:18.137Z,61.37
2018-03-02T00:18:46.055Z,62.72
2018-03-02T00:21:13.692Z,63.83
2018-03-02T00:23:41.296Z,63.35
2018-03-02T00:26:08.980Z,62.09
2018-03-02T00:28:36.717Z,63.52
2018-03-02T00:31:04.351Z,62.72
2018-03-02T00:33:32.006Z,63.17
2018-03-02T00:35:59.644Z,62.38
2018-03-02T00:38:27.250Z,61.89
2018-03-02T00:40:55.414Z,61.76
2018-03-02T00:43:23.047Z,61.92
2018-03-02T00:45:50.609Z,62.29
2018-03-02T00:48:18.302Z,62.42
2018-03-02T00:50:45.889Z,62.73
2018-03-02T00:53:13.483Z,62.83
2018-03-02T00:55:41.174Z,61.43
2018-03-02T00:58:08.777Z,61.76
2018-03-02T01:00:36.403Z,61.15
2018-03-02T01:03:04.086Z,61.48
2018-03-02T01:05:31.680Z,62.30
2018-03-02T01:07:59.257Z,62.91
2018-03-02T01:10:26.947Z,62.94
2018-03-02T01:12:54.530Z,62.55
2018-03-02T01:15:22.173Z,63.07
2018-03-02T01:17:50.017Z,62.58
2018-03-02T01:20:17.594Z,62.50
2018-03-02T01:22:45.229Z,62.47
2018-03-02T01:25:12.868Z,62.46
2018-03-02T01:27:40.430Z,62.40
2018-03-02T01:30:08.064Z,63.14
2018-03-02T01:32:35.916Z,63.33
2018-03-02T01:35:03.510Z,62.79
2018-03-02T01:37:31.150Z,63.13
2018-03-02T01:39:58.798Z,63.12
2018-03-02T01:42:26.400Z,63.58
2018-03-02T01:44:53.979Z,63.86
2018-03-02T01:47:21.612Z,63.69
2018-03-02T01:49:49.173Z,63.56
2018-03-02T01:52:16.774Z,63.67
2018-03-02T01:54:44.605Z,63.79
2018-03-02T01:57:12.244Z,63.48
2018-03-02T01:59:39.831Z,63.67
2018-03-02T02:02:07.673Z,63.21
2018-03-02T02:04:35.239Z,63.71
2018-03-02T02:07:02.820Z,64.10
2018-03-02T02:09:30.464Z,64.11
2018-03-02T02:11:58.046Z,64.06
2018-03-02T02:14:25.614Z,63.93
2018-03-02T02:16:53.236Z,64.35
2018-03-02T02:19:20.833Z,63.80
2018-03-02T02:21:48.463Z,63.76
2018-03-02T02:24:16.181Z,63.71
2018-03-02T02:26:43.737Z,63.50
2018-03-02T02:29:11.330Z,62.94
2018-03-02T02:31:39.068Z,62.96
2018-03-02T02:34:07.200Z,63.10
2018-03-02T02:36:34.765Z,63.31
2018-03-02T02:39:02.623Z,63.30
2018-03-02T02:41:30.207Z,63.20
2018-03-02T02:43:57.794Z,63.51
2018-03-02T02:46:25.765Z,63.78
2018-03-02T02:48:53.394Z,63.73
2018-03-02T02:51:21.043Z,63.84
2018-03-02T02:53:48.758Z,63.44
2018-03-02T02:56:16.400Z,63.71
2018-03-02T02:58:44.037Z,63.81
2018-03-02T03:01:11.735Z,64.07
2018-03-02T03:03:39.317Z,63.75
2018-03-02T03:06:06.892Z,64.33
2018-03-02T03:08:34.549Z,64.75
2018-03-02T03:11:02.131Z,64.42
2018-03-02T03:13:29.761Z,64.79
2018-03-02T03:15:57.490Z,64.75
2018-03-02T03:18:25.064Z,64.52
2018-03-02T03:20:53.241Z,64.39
2018-03-02T03:23:21.231Z,64.52
2018-03-02T03:25:48.799Z,64.75
2018-03-02T03:28:16.377Z,64.97
2018-03-02T03:30:44.079Z,65.07
2018-03-02T03:33:11.778Z,64.84
2018-03-02T03:35:39.372Z,64.15
2018-03-02T03:38:06.989Z,64.13
2018-03-02T03:40:34.867Z,63.99
2018-03-02T03:43:02.440Z,64.38
2018-03-02T03:45:30.320Z,62.56
2018-03-02T03:47:57.901Z,63.73
2018-03-02T03:50:25.494Z,64.76
2018-03-02T03:52:53.111Z,65.21
2018-03-02T03:55:20.673Z,65.14
2018-03-02T03:57:48.258Z,64.81
2018-03-02T04:00:15.865Z,63.41
2018-03-02T04:02:43.453Z,63.65
2018-03-02T04:05:11.090Z,63.98
2018-03-02T04:07:38.742Z,64.26
2018-03-02T04:10:06.306Z,63.87
2018-03-02T04:12:33.889Z,64.01
2018-03-02T04:15:01.598Z,63.93
2018-03-02T04:17:29.177Z,64.08
2018-03-02T04:19:56.755Z,64.17
2018-03-02T04:22:24.646Z,64.15
2018-03-02T04:24:52.224Z,64.25
2018-03-02T04:27:19.815Z,64.63
2018-03-02T04:29:47.728Z,64.69
2018-03-02T04:32:15.334Z,64.45
2018-03-02T04:34:43.392Z,64.60
2018-03-02T04:37:11.005Z,64.43
2018-03-02T04:39:38.585Z,64.24
2018-03-02T04:42:06.157Z,64.61
2018-03-02T04:44:33.802Z,64.39
2018-03-02T04:47:01.478Z,64.58
2018-03-02T04:49:29.129Z,64.67
2018-03-02T04:51:56.751Z,64.35
2018-03-02T04:54:24.334Z,64.45
2018-03-02T04:56:51.920Z,64.20
2018-03-02T04:59:19.805Z,64.37
2018-03-02T05:01:47.372Z,64.05
2018-03-02T05:04:14.964Z,64.18
2018-03-02T05:06:42.880Z,64.19
2018-03-02T05:09:10.475Z,63.66
2018-03-02T05:11:38.044Z,63.46
2018-03-02T05:14:05.692Z,63.58
2018-03-02T05:16:33.252Z,62.12
2018-03-02T05:19:00.865Z,60.57
2018-03-02T05:21:28.467Z,60.05
2018-03-02T05:23:56.101Z,59.84
2018-03-02T05:26:23.707Z,59.56
2018-03-02T05:28:51.328Z,59.76
2018-03-02T05:31:18.905Z,60.08
2018-03-02T05:33:46.538Z,60.18
2018-03-02T05:36:14.625Z,60.59
2018-03-02T05:38:42.193Z,60.76
2018-03-02T05:41:09.777Z,61.51
2018-03-02T05:43:37.787Z,62.48
2018-03-02T05:46:05.447Z,61.44
2018-03-02T05:48:33.017Z,61.81
2018-03-02T05:51:00.658Z,61.63
2018-03-02T05:53:28.246Z,60.93
2018-03-02T05:55:55.847Z,60.73
2018-03-02T05:58:23.484Z,61.70
2018-03-02T06:00:51.053Z,60.96
2018-03-02T06:03:18.689Z,61.09
2018-03-02T06:05:46.333Z,60.80
2018-03-02T06:08:13.893Z,60.17
2018-03-02T06:10:41.468Z,60.97
2018-03-02T06:13:09.079Z,60.45
2018-03-02T06:15:36.631Z,60.90
2018-03-02T06:18:04.219Z,60.23
2018-03-02T06:20:31.868Z,61.01
2018-03-02T06:22:59.463Z,59.40
2018-03-02T06:25:27.034Z,59.81
2018-03-02T06:27:54.934Z,60.06
2018-03-02T06:30:22.587Z,59.30
2018-03-02T06:32:50.163Z,59.44
2018-03-02T06:35:17.805Z,59.40
2018-03-02T06:37:45.579Z,60.22
2018-03-02T06:40:13.222Z,60.14
2018-03-02T06:42:41.644Z,60.11
2018-03-02T06:45:09.219Z,59.34
2018-03-02T06:47:36.798Z,58.58
2018-03-02T06:50:04.441Z,58.81
2018-03-02T06:52:32.013Z,58.33
2018-03-02T06:54:59.649Z,57.16
2018-03-02T06:57:27.283Z,57.30
2018-03-02T06:59:54.879Z,56.81
2018-03-02T07:02:22.446Z,57.42
2018-03-02T07:04:50.102Z,56.12
2018-03-02T07:07:17.714Z,56.18
2018-03-02T07:09:45.359Z,58.32
2018-03-02T07:12:12.980Z,56.27
2018-03-02T07:14:40.569Z,57.71
2018-03-02T07:17:08.197Z,58.87
2018-03-02T07:19:36.061Z,57.50
2018-03-02T07:22:03.637Z,57.47
2018-03-02T07:24:31.206Z,57.99
2018-03-02T07:26:58.939Z,57.52
2018-03-02T07:29:26.550Z,57.64
2018-03-02T07:31:54.149Z,57.35
2018-03-02T07:34:22.021Z,57.75
2018-03-02T07:36:49.605Z,56.91
2018-03-02T07:39:17.378Z,56.30
2018-03-02T07:41:45.065Z,56.89
2018-03-02T07:44:12.667Z,55.80
2018-03-02T07:46:40.975Z,55.53
2018-03-02T07:49:08.662Z,55.81
2018-03-02T07:51:36.234Z,55.60
2018-03-02T07:54:03.820Z,54.34
2018-03-02T07:56:31.438Z,54.54
2018-03-02T07:58:58.996Z,54.94
2018-03-02T08:01:26.573Z,54.96
2018-03-02T08:03:54.213Z,55.58
2018-03-02T08:06:21.807Z,55.46
2018-03-02T08:08:49.379Z,54.46
2018-03-02T08:11:17.358Z,53.97
2018-03-02T08:13:44.926Z,53.50
2018-03-02T08:16:12.555Z,53.66
2018-03-02T08:18:40.178Z,53.46
2018-03-02T08:21:07.763Z,53.17
2018-03-02T08:23:35.340Z,53.62
2018-03-02T08:26:03.291Z,53.48
2018-03-02T08:28:30.919Z,53.81
2018-03-02T08:30:58.479Z,52.41
2018-03-02T08:33:26.159Z,52.84
2018-03-02T08:35:53.761Z,52.22
2018-03-02T08:38:22.259Z,52.56
2018-03-02T08:40:50.046Z,55.62
2018-03-02T08:43:17.686Z,54.63
2018-03-02T08:45:45.277Z,54.34
2018-03-02T08:48:13.132Z,55.53
2018-03-02T08:50:40.740Z,55.54
2018-03-02T08:53:08.317Z,55.18
2018-03-02T08:55:35.968Z,54.94
2018-03-02T08:58:03.532Z,55.60
2018-03-02T09:00:31.222Z,56.45
2018-03-02T09:02:58.882Z,56.47
2018-03-02T09:05:26.461Z,56.86
2018-03-02T09:07:54.032Z,57.67
2018-03-02T09:10:21.853Z,57.41
2018-03-02T09:12:49.431Z,57.36
2018-03-02T09:15:17.074Z,58.66
2018-03-02T09:17:45.469Z,57.68
2018-03-02T09:20:13.053Z,59.41
2018-03-02T09:22:40.630Z,58.94
2018-03-02T09:25:08.284Z,59.07
2018-03-02T09:27:35.878Z,57.54
2018-03-02T09:30:03.531Z,58.28
2018-03-02T09:32:31.164Z,59.25
2018-03-02T09:34:58.811Z,58.68
2018-03-02T09:37:26.586Z,59.61
2018-03-02T09:39:54.227Z,59.16
2018-03-02T09:42:21.959Z,59.83
2018-03-02T09:44:49.573Z,58.07
2018-03-02T09:47:17.208Z,57.07
2018-03-02T09:49:44.876Z,59.24
2018-03-02T09:52:12.459Z,56.34
2018-03-02T09:54:40.093Z,55.77
2018-03-02T09:57:07.655Z,55.63
2018-03-02T09:59:35.302Z,57.39
2018-03-02T10:02:03.233Z,57.53
2018-03-02T10:04:30.845Z,57.83
2018-03-02T10:06:58.421Z,57.38
2018-03-02T10:09:26.069Z,58.42
2018-03-02T10:11:53.645Z,57.83
2018-03-02T10:14:21.280Z,56.67
2018-03-02T10:16:48.929Z,57.24
2018-03-02T10:19:16.858Z,56.99
2018-03-02T10:21:44.481Z,57.52
2018-03-02T10:24:12.171Z,56.25
2018-03-02T10:26:39.876Z,57.10
2018-03-02T10:29:07.453Z,58.63
2018-03-02T10:31:35.078Z,57.77
2018-03-02T10:34:03.197Z,58.47
2018-03-02T10:36:31.630Z,58.70
2018-03-02T10:38:59.592Z,57.60
2018-03-02T10:41:27.153Z,57.39
2018-03-02T10:43:54.925Z,57.63
2018-03-02T10:46:22.566Z,57.59
2018-03-02T10:48:50.182Z,59.13
2018-03-02T10:51:17.748Z,58.49
2018-03-02T10:53:45.407Z,57.87
2018-03-02T10:56:13.919Z,59.59
2018-03-02T10:58:41.522Z,58.67
2018-03-02T11:01:12.044Z,58.25
2018-03-02T11:03:39.657Z,59.41
2018-03-02T11:06:07.400Z,60.46
2018-03-02T11:08:35.694Z,61.16
2018-03-02T11:11:03.957Z,62.07
2018-03-02T11:13:31.549Z,60.71
2018-03-02T11:16:00.402Z,62.15
2018-03-02T11:18:27.986Z,62.07
2018-03-02T11:20:55.553Z,62.35
2018-03-02T11:23:23.230Z,62.73
2018-03-02T11:25:50.839Z,61.02
2018-03-02T11:28:18.424Z,62.41
2018-03-02T11:30:46.087Z,63.17
2018-03-02T11:33:13.673Z,61.68
2018-03-02T11:35:41.260Z,64.59
2018-03-02T11:38:08.900Z,65.04
2018-03-02T11:40:36.491Z,64.81
2018-03-02T11:43:04.080Z,64.63
2018-03-02T11:45:32.630Z,65.25
2018-03-02T11:48:00.259Z,64.22
2018-03-02T11:50:27.946Z,64.99
2018-03-02T11:52:55.584Z,64.60
2018-03-02T11:55:23.140Z,63.47
2018-03-02T11:57:50.695Z,64.66
2018-03-02T12:00:18.448Z,64.67
2018-03-02T12:02:46.046Z,65.52
2018-03-02T12:05:13.666Z,65.48
2018-03-02T12:07:41.335Z,65.49
2018-03-02T12:10:08.934Z,66.03
2018-03-02T12:12:36.566Z,66.14
2018-03-02T12:15:04.239Z,65.71
2018-03-02T12:17:31.805Z,67.19
2018-03-02T12:19:59.393Z,67.49
2018-03-02T12:22:27.018Z,66.42
2018-03-02T12:24:54.589Z,67.37
2018-03-02T12:27:22.167Z,65.75
2018-03-02T12:29:49.782Z,66.76
2018-03-02T12:32:17.361Z,69.18
2018-03-02T12:34:44.957Z,68.84
2018-03-02T12:37:12.569Z,68.35
2018-03-02T12:39:40.170Z,68.40
2018-03-02T12:42:07.773Z,68.55
2018-03-02T12:44:36.426Z,70.64
2018-03-02T12:47:04.053Z,70.01
2018-03-02T12:49:31.702Z,71.02
2018-03-02T12:51:59.378Z,69.76
2018-03-02T12:54:27.061Z,70.54
2018-03-02T12:56:54.553Z,69.11
2018-03-02T12:59:22.175Z,70.84
2018-03-02T13:01:49.815Z,70.44
2018-03-02T13:04:17.428Z,69.87
2018-03-02T13:06:45.261Z,69.54
2018-03-02T13:09:12.838Z,69.36
2018-03-02T13:11:40.454Z,69.02
2018-03-02T13:14:08.364Z,68.27
2018-03-02T13:16:35.924Z,67.50
2018-03-02T13:19:03.488Z,67.43
2018-03-02T13:21:31.136Z,67.50
2018-03-02T13:23:58.736Z,68.56
2018-03-02T13:26:38.214Z,67.20
2018-03-02T13:29:05.806Z,67.62
2018-03-02T13:31:33.364Z,67.93
2018-03-02T13:34:12.863Z,68.22
2018-03-02T13:36:40.440Z,67.50
2018-03-02T13:39:08.018Z,65.28
2018-03-02T13:41:47.410Z,65.14
2018-03-02T13:44:14.994Z,64.65
2018-03-02T13:46:42.565Z,63.67
2018-03-02T13:49:21.974Z,63.62
2018-03-02T13:51:49.541Z,62.77
2018-03-02T13:54:17.170Z,62.76
2018-03-02T13:56:56.618Z,64.62
2018-03-02T13:59:24.255Z,65.32
2018-03-02T14:01:51.839Z,65.79
2018-03-02T14:04:31.566Z,66.26
2018-03-02T14:06:59.132Z,66.86
2018-03-02T14:09:26.733Z,66.04
2018-03-02T14:11:54.392Z,67.22
2018-03-02T14:14:21.987Z,67.06
2018-03-02T14:16:49.581Z,66.33
2018-03-02T14:19:17.342Z,66.08
2018-03-02T14:21:44.922Z,66.48
2018-03-02T14:24:12.508Z,65.66
2018-03-02T14:26:40.146Z,66.40
2018-03-02T14:29:07.730Z,67.07
2018-03-02T14:31:35.317Z,67.19
2018-03-02T14:34:03.010Z,67.19
2018-03-02T14:36:30.681Z,67.38
2018-03-02T14:38:58.240Z,66.73
2018-03-02T14:41:25.884Z,66.47
2018-03-02T14:43:54.385Z,66.35
2018-03-02T14:46:21.959Z,67.28
2018-03-02T14:48:49.601Z,68.21
2018-03-02T14:51:17.384Z,68.82
2018-03-02T14:53:44.940Z,68.94
2018-03-02T14:56:12.576Z,69.72
2018-03-02T14:58:40.150Z,70.13
2018-03-02T15:01:07.724Z,70.02
2018-03-02T15:03:35.387Z,70.53
2018-03-02T15:06:03.026Z,70.73
2018-03-02T15:08:30.592Z,71.46
2018-03-02T15:10:58.220Z,71.42
2018-03-02T15:13:25.935Z,71.84
2018-03-02T15:15:53.518Z,71.79
2018-03-02T15:18:21.143Z,71.81
2018-03-02T15:20:48.713Z,72.65
2018-03-02T15:23:16.286Z,72.47
2018-03-02T15:25:43.881Z,73.05
2018-03-02T15:28:11.510Z,72.55
2018-03-02T15:30:39.459Z,72.74
2018-03-02T15:33:07.392Z,72.72
2018-03-02T15:35:35.029Z,72.79
2018-03-02T15:38:02.623Z,72.72
2018-03-02T15:40:30.225Z,72.78
2018-03-02T15:42:57.799Z,73.52
2018-03-02T15:45:25.442Z,73.75
2018-03-02T15:47:53.071Z,73.12
2018-03-02T15:50:20.646Z,73.76
2018-03-02T15:52:48.373Z,73.60
2018-03-02T15:55:16.015Z,73.78
2018-03-02T15:57:43.631Z,74.74
2018-03-02T16:00:11.244Z,74.53
2018-03-02T16:02:39.173Z,75.40
2018-03-02T16:05:06.815Z,74.70
2018-03-02T16:07:34.438Z,75.30
2018-03-02T16:10:02.074Z,75.61
2018-03-02T16:12:32.288Z,75.10
2018-03-02T16:15:00.082Z,75.81
2018-03-02T16:17:28.321Z,75.43
2018-03-02T16:19:55.965Z,75.57
2018-03-02T16:22:23.550Z,75.72
2018-03-02T16:24:51.251Z,76.03
2018-03-02T16:27:18.822Z,75.61
2018-03-02T16:29:46.425Z,76.05
2018-03-02T16:32:14.069Z,75.97
2018-03-02T16:34:41.655Z,76.33
2018-03-02T16:37:09.233Z,76.26
2018-03-02T16:39:37.235Z,76.42
2018-03-02T16:42:04.848Z,76.27
2018-03-02T16:44:32.471Z,76.57
2018-03-02T16:47:00.135Z,76.14
2018-03-02T16:49:27.742Z,76.56
2018-03-02T16:51:55.467Z,76.12
2018-03-02T16:54:23.198Z,76.78
2018-03-02T16:56:50.797Z,76.57
2018-03-02T16:59:18.516Z,76.18
2018-03-02T17:01:46.235Z,76.39
2018-03-02T17:04:13.974Z,76.57
2018-03-02T17:06:41.560Z,76.70
2018-03-02T17:09:09.225Z,77.31
2018-03-02T17:11:36.868Z,76.67
2018-03-02T17:14:04.550Z,76.73
2018-03-02T17:16:32.199Z,76.76
2018-03-02T17:18:59.822Z,76.65
2018-03-02T17:21:27.439Z,76.25
2018-03-02T17:23:55.980Z,76.90
2018-03-02T17:26:23.578Z,77.66
2018-03-02T17:28:51.137Z,76.89
2018-03-02T17:31:18.936Z,77.10
2018-03-02T17:33:46.619Z,77.40
2018-03-02T17:36:14.265Z,77.83
2018-03-02T17:38:42.115Z,77.85
2018-03-02T17:41:09.811Z,78.21
2018-03-02T17:43:37.513Z,78.03
2018-03-02T17:46:05.264Z,77.74
2018-03-02T17:48:33.072Z,77.43
2018-03-02T17:51:00.863Z,76.98
2018-03-02T17:53:30.633Z,77.11
2018-03-02T17:55:58.345Z,76.87
2018-03-02T17:58:26.127Z,78.04
2018-03-02T18:00:54.086Z,78.48
2018-03-02T18:03:21.740Z,77.71
2018-03-02T18:05:49.420Z,77.79
2018-03-02T18:08:17.239Z,78.35
2018-03-02T18:10:45.110Z,78.36
2018-03-02T18:13:12.697Z,78.15
2018-03-02T18:15:40.377Z,78.35
2018-03-02T18:18:07.985Z,78.63
2018-03-02T18:20:35.592Z,78.20
2018-03-02T18:23:03.352Z,78.07
2018-03-02T18:25:31.287Z,78.22
2018-03-02T18:27:59.130Z,78.37
2018-03-02T18:30:26.846Z,78.17
2018-03-02T18:32:54.549Z,78.44
2018-03-02T18:35:22.175Z,78.11
2018-03-02T18:37:49.829Z,77.89
2018-03-02T18:40:17.495Z,78.47
2018-03-02T18:42:45.068Z,78.71
2018-03-02T18:45:13.005Z,78.40
2018-03-02T18:47:40.598Z,79.26
2018-03-02T18:50:08.184Z,79.51
2018-03-02T18:52:36.006Z,78.92
2018-03-02T18:55:03.602Z,78.85
2018-03-02T18:57:31.405Z,79.15
2018-03-02T18:59:59.098Z,78.94
2018-03-02T19:02:26.926Z,78.85
2018-03-02T19:04:54.679Z,78.99
2018-03-02T19:07:22.537Z,78.79
2018-03-02T19:09:50.136Z,78.96
2018-03-02T19:12:17.942Z,80.24
2018-03-02T19:14:46.121Z,79.88
2018-03-02T19:17:13.810Z,80.49
2018-03-02T19:19:41.517Z,80.44
2018-03-02T19:22:09.702Z,80.31
2018-03-02T19:24:37.409Z,80.79
2018-03-02T19:27:05.064Z,80.47
2018-03-02T19:29:32.706Z,80.58
2018-03-02T19:32:00.484Z,80.56
2018-03-02T19:34:28.264Z,81.12
2018-03-02T19:36:55.974Z,80.56
2018-03-02T19:39:23.867Z,80.66
2018-03-02T19:41:51.672Z,80.51
2018-03-02T19:44:19.610Z,80.03
2018-03-02T19:46:47.363Z,80.03
2018-03-02T19:49:15.187Z,79.75
2018-03-02T19:51:43.338Z,79.84
2018-03-02T19:54:11.038Z,79.88
2018-03-02T19:56:38.828Z,80.42
2018-03-02T19:59:07.421Z,80.93
2018-03-02T20:01:35.192Z,81.12
2018-03-02T20:04:03.011Z,80.94
2018-03-02T20:06:30.796Z,80.52
2018-03-02T20:08:58.616Z,80.33
2018-03-02T20:11:26.436Z,80.57
2018-03-02T20:13:54.367Z,80.27
2018-03-02T20:16:22.309Z,80.29
2018-03-02T20:18:50.073Z,79.99
2018-03-02T20:21:17.896Z,79.93
2018-03-02T20:23:45.637Z,80.10
2018-03-02T20:26:13.404Z,80.07
2018-03-02T20:28:41.465Z,79.71
2018-03-02T20:31:09.271Z,79.74
2018-03-02T20:33:36.884Z,79.99
2018-03-02T20:36:04.918Z,79.73
2018-03-02T20:38:32.687Z,79.81
2018-03-02T20:41:00.374Z,80.29
2018-03-02T20:43:28.129Z,80.11
2018-03-02T20:45:55.748Z,79.80
2018-03-02T20:48:23.394Z,80.34
2018-03-02T20:50:51.066Z,80.25
2018-03-02T20:53:18.655Z,79.97
2018-03-02T20:55:46.993Z,80.69
2018-03-02T20:58:14.675Z,80.73
2018-03-02T21:00:42.531Z,80.67
2018-03-02T21:03:10.290Z,80.82
2018-03-02T21:05:38.162Z,81.39
2018-03-02T21:08:05.883Z,81.44
2018-03-02T21:10:33.546Z,81.49
2018-03-02T21:13:01.190Z,81.87
2018-03-02T21:15:28.842Z,81.62
2018-03-02T21:17:56.474Z,81.70
2018-03-02T21:20:24.082Z,81.71
2018-03-02T21:22:52.301Z,81.63
2018-03-02T21:25:19.860Z,80.71
2018-03-02T21:27:48.465Z,80.80
2018-03-02T21:30:16.403Z,80.24
2018-03-02T21:32:44.026Z,80.33
2018-03-02T21:35:11.657Z,80.42
2018-03-02T21:37:39.235Z,80.25
2018-03-02T21:40:06.842Z,80.45
2018-03-02T21:42:34.748Z,81.00
2018-03-02T21:45:02.334Z,80.96
2018-03-02T21:47:29.990Z,81.10
2018-03-02T21:49:57.901Z,80.93
2018-03-02T21:52:25.477Z,81.52
2018-03-02T21:54:53.066Z,81.61
2018-03-02T21:57:20.716Z,81.46
2018-03-02T21:59:48.300Z,81.46
2018-03-02T22:02:15.962Z,81.30
2018-03-02T22:04:43.919Z,80.84
2018-03-02T22:07:11.506Z,81.25
2018-03-02T22:09:39.149Z,80.88
2018-03-02T22:12:06.760Z,81.14
2018-03-02T22:14:34.337Z,81.61
2018-03-02T22:17:01.957Z,82.02
2018-03-02T22:19:30.095Z,81.97
2018-03-02T22:21:57.675Z,81.79
2018-03-02T22:24:25.318Z,81.92
2018-03-02T22:26:52.983Z,81.45
2018-03-02T22:29:20.561Z,81.15
2018-03-02T22:31:48.154Z,80.74
2018-03-02T22:34:15.854Z,80.60
2018-03-02T22:36:43.431Z,80.79
2018-03-02T22:39:11.028Z,80.99
2018-03-02T22:41:38.670Z,81.19
2018-03-02T22:44:06.258Z,82.09
2018-03-02T22:46:33.860Z,82.36
2018-03-02T22:49:01.508Z,82.39
2018-03-02T22:51:29.090Z,82.02
2018-03-02T22:53:56.742Z,81.60
2018-03-02T22:56:24.389Z,81.02
2018-03-02T22:58:51.976Z,81.28
2018-03-02T23:01:19.558Z,80.83
2018-03-02T23:03:47.244Z,80.55
2018-03-02T23:06:15.043Z,80.35
2018-03-02T23:08:42.676Z,80.24
2018-03-02T23:11:10.582Z,80.41
2018-03-02T23:13:38.169Z,80.47
2018-03-02T23:16:05.755Z,80.28
2018-03-02T23:18:33.397Z,79.80
2018-03-02T23:21:00.982Z,80.05
2018-03-02T23:23:28.565Z,80.09
2018-03-02T23:25:56.204Z,80.55
2018-03-02T23:28:23.804Z,80.68
2018-03-02T23:30:51.392Z,80.40
2018-03-02T23:33:19.018Z,80.82
2018-03-02T23:35:46.604Z,80.93
2018-03-02T23:38:14.196Z,80.40
2018-03-02T23:40:42.054Z,81.01
2018-03-02T23:43:09.633Z,80.89
2018-03-02T23:45:37.271Z,80.84
2018-03-02T23:48:04.905Z,80.61
2018-03-02T23:50:32.506Z,80.79
2018-03-02T23:53:00.097Z,81.15
2018-03-02T23:55:27.735Z,80.71
2018-03-02T23:57:55.321Z,80.16
